createdAt,value
2018-09-14T00:00:19.438Z,3.92
2018-09-14T00:02:50.073Z,3.67
2018-09-14T00:05:22.012Z,3.15
2018-09-14T00:07:53.025Z,4.10
2018-09-14T00:10:24.919Z,3.45
2018-09-14T00:12:54.799Z,3.67
2018-09-14T00:15:24.800Z,3.42
2018-09-14T00:17:55.097Z,3.70
2018-09-14T00:20:25.513Z,3.72
2018-09-14T00:22:55.541Z,3.67
2018-09-14T00:25:25.770Z,3.58
2018-09-14T00:27:56.868Z,3.70
2018-09-14T00:30:29.771Z,3.30
2018-09-14T00:33:02.852Z,2.77
2018-09-14T00:35:32.991Z,4.00
2018-09-14T00:38:02.998Z,3.25
2018-09-14T00:40:35.082Z,4.00
2018-09-14T00:43:06.082Z,3.72
2018-09-14T00:45:36.225Z,3.92
2018-09-14T00:48:06.803Z,3.52
2018-09-14T00:50:38.745Z,4.20
2018-09-14T00:53:09.048Z,3.70
2018-09-14T00:55:39.588Z,3.72
2018-09-14T00:58:10.180Z,3.70
2018-09-14T01:00:40.637Z,3.50
2018-09-14T01:03:14.133Z,4.08
2018-09-14T01:05:44.723Z,3.50
2018-09-14T01:08:14.756Z,3.70
2018-09-14T01:10:45.689Z,3.80
2018-09-14T01:13:17.285Z,3.62
2018-09-14T01:15:47.363Z,3.55
2018-09-14T01:18:17.541Z,3.72
2018-09-14T01:20:47.855Z,3.98
2018-09-14T01:23:17.888Z,4.00
2018-09-14T01:25:49.540Z,4.22
2018-09-14T01:28:22.046Z,4.40
2018-09-14T01:30:53.140Z,4.40
2018-09-14T01:33:25.316Z,4.10
2018-09-14T01:36:00.090Z,5.03
2018-09-14T01:38:31.807Z,5.42
2018-09-14T01:41:02.313Z,6.20
2018-09-14T01:43:32.403Z,5.72
2018-09-14T01:46:05.278Z,5.25
2018-09-14T01:48:35.893Z,6.25
2018-09-14T01:51:06.408Z,6.62
2018-09-14T01:53:37.674Z,7.22
2018-09-14T01:56:07.823Z,6.17
2018-09-14T01:58:37.848Z,7.75
2018-09-14T02:01:08.138Z,4.97
2018-09-14T02:03:39.474Z,7.72
2018-09-14T02:06:12.264Z,7.30
2018-09-14T02:08:42.942Z,8.65
2018-09-14T02:11:13.021Z,6.85
2018-09-14T02:13:44.977Z,9.20
2018-09-14T02:16:16.013Z,8.95
2018-09-14T02:18:46.244Z,8.93
2018-09-14T02:21:17.797Z,8.45
2018-09-14T02:23:50.171Z,9.20
2018-09-14T02:26:20.586Z,9.78
2018-09-14T02:28:51.055Z,9.08
2018-09-14T02:31:22.704Z,10.18
2018-09-14T02:33:52.582Z,10.00
2018-09-14T02:36:22.660Z,8.58
2018-09-14T02:38:54.119Z,9.90
2018-09-14T02:41:24.705Z,7.80
2018-09-14T02:43:57.161Z,9.53
2018-09-14T02:46:30.045Z,8.50
2018-09-14T02:48:59.914Z,9.40
2018-09-14T02:51:29.768Z,7.55
2018-09-14T02:53:59.479Z,6.00
2018-09-14T02:56:30.709Z,5.75
2018-09-14T02:59:00.836Z,3.83
2018-09-14T03:01:30.773Z,7.30
2018-09-14T03:04:01.218Z,7.65
2018-09-14T03:06:33.658Z,5.62
2018-09-14T03:09:05.225Z,6.40
2018-09-14T03:11:37.606Z,3.98
2018-09-14T03:14:10.286Z,3.75
2018-09-14T03:16:42.696Z,4.83
2018-09-14T03:19:12.920Z,4.53
2018-09-14T03:21:44.137Z,6.20
2018-09-14T03:24:14.216Z,7.67
2018-09-14T03:26:44.186Z,6.12
2018-09-14T03:29:15.729Z,3.20
2018-09-14T03:31:45.696Z,6.03
2018-09-14T03:34:15.640Z,4.62
2018-09-14T03:36:46.062Z,6.20
2018-09-14T03:39:15.982Z,5.83
2018-09-14T03:41:46.162Z,2.58
2018-09-14T03:44:16.285Z,7.00
2018-09-14T03:46:46.205Z,6.05
2018-09-14T03:49:16.729Z,7.92
2018-09-14T03:51:48.706Z,5.97
2018-09-14T03:54:21.262Z,4.97
2018-09-14T03:56:54.261Z,5.08
2018-09-14T03:59:24.275Z,6.92
2018-09-14T04:01:54.841Z,7.08
2018-09-14T04:04:27.233Z,7.50
2018-09-14T04:06:57.331Z,7.05
2018-09-14T04:09:27.415Z,5.53
2018-09-14T04:11:57.728Z,7.30
2018-09-14T04:14:27.978Z,7.33
2018-09-14T04:17:01.653Z,6.30
2018-09-14T04:19:32.084Z,7.47
2018-09-14T04:22:02.637Z,9.08
2018-09-14T04:24:32.572Z,5.50
2018-09-14T04:27:02.692Z,7.15
2018-09-14T04:29:32.868Z,7.72
2018-09-14T04:32:03.805Z,5.97
2018-09-14T04:34:33.822Z,8.45
2018-09-14T04:37:04.214Z,4.87
2018-09-14T04:39:34.101Z,7.80
2018-09-14T04:42:04.195Z,8.20
2018-09-14T04:44:35.215Z,9.03
2018-09-14T04:47:05.229Z,7.85
2018-09-14T04:49:37.689Z,6.62
2018-09-14T04:52:08.953Z,8.70
2018-09-14T04:54:39.015Z,6.55
2018-09-14T04:57:10.389Z,7.95
2018-09-14T04:59:42.252Z,8.23
2018-09-14T05:02:12.617Z,7.00
2018-09-14T05:04:42.795Z,7.72
2018-09-14T05:07:13.174Z,8.05
2018-09-14T05:09:43.625Z,7.33
2018-09-14T05:12:17.009Z,6.83
2018-09-14T05:14:51.553Z,9.25
2018-09-14T05:17:24.515Z,7.37
2018-09-14T05:19:54.704Z,8.88
2018-09-14T05:22:26.664Z,7.78
2018-09-14T05:24:57.024Z,9.23
2018-09-14T05:27:29.049Z,8.58
2018-09-14T05:29:59.806Z,9.53
2018-09-14T05:32:30.027Z,8.43
2018-09-14T05:35:03.021Z,9.30
2018-09-14T05:37:33.173Z,7.58
2018-09-14T05:40:03.951Z,8.03
2018-09-14T05:42:34.108Z,8.43
2018-09-14T05:45:04.831Z,7.10
2018-09-14T05:47:35.241Z,8.28
2018-09-14T05:50:05.474Z,8.80
2018-09-14T05:52:35.774Z,7.62
2018-09-14T05:55:05.894Z,8.23
2018-09-14T05:57:36.344Z,8.10
2018-09-14T06:00:06.648Z,8.40
2018-09-14T06:02:36.712Z,7.92
2018-09-14T06:05:07.391Z,4.83
2018-09-14T06:07:37.548Z,8.50
2018-09-14T06:10:09.089Z,7.25
2018-09-14T06:12:39.099Z,6.90
2018-09-14T06:15:10.891Z,5.58
2018-09-14T06:17:41.738Z,8.00
2018-09-14T06:20:11.753Z,8.50
2018-09-14T06:22:44.847Z,8.25
2018-09-14T06:25:15.045Z,5.70
2018-09-14T06:27:48.752Z,7.05
2018-09-14T06:30:20.129Z,7.97
2018-09-14T06:32:51.725Z,5.30
2018-09-14T06:35:21.739Z,7.45
2018-09-14T06:37:52.669Z,6.70
2018-09-14T06:40:22.900Z,8.08
2018-09-14T06:42:55.473Z,8.53
2018-09-14T06:45:26.462Z,8.28
2018-09-14T06:47:57.076Z,7.00
2018-09-14T06:50:28.570Z,4.22
2018-09-14T06:53:00.576Z,5.20
2018-09-14T06:55:31.178Z,5.62
2018-09-14T06:58:01.206Z,6.85
2018-09-14T07:00:31.411Z,8.60
2018-09-14T07:03:02.479Z,7.22
2018-09-14T07:05:33.920Z,5.75
2018-09-14T07:08:04.000Z,6.92
2018-09-14T07:10:34.246Z,6.30
2018-09-14T07:13:06.321Z,6.60
2018-09-14T07:15:37.959Z,8.30
2018-09-14T07:18:08.421Z,6.17
2018-09-14T07:20:38.582Z,5.33
2018-09-14T07:23:08.758Z,7.33
2018-09-14T07:25:38.871Z,5.90
2018-09-14T07:28:09.870Z,7.20
2018-09-14T07:30:40.139Z,6.12
2018-09-14T07:33:10.375Z,6.83
2018-09-14T07:37:29.213Z,4.22
2018-09-14T07:40:00.070Z,6.83
2018-09-14T07:42:30.960Z,6.33
2018-09-14T07:45:00.779Z,5.67
2018-09-14T07:47:32.002Z,7.15
2018-09-14T07:50:05.456Z,5.62
2018-09-14T07:52:35.483Z,5.28
2018-09-14T07:55:06.389Z,9.45
2018-09-14T07:57:36.613Z,3.33
2018-09-14T08:00:07.782Z,5.28
2018-09-14T08:02:38.370Z,4.62
2018-09-14T08:05:08.488Z,5.20
2018-09-14T08:07:39.548Z,4.72
2018-09-14T08:10:10.115Z,2.70
2018-09-14T08:12:40.784Z,4.67
2018-09-14T08:15:10.974Z,4.60
2018-09-14T08:17:40.990Z,4.72
2018-09-14T08:20:11.273Z,4.50
2018-09-14T08:22:42.097Z,3.55
2018-09-14T08:25:12.408Z,2.95
2018-09-14T08:27:42.420Z,1.82
2018-09-14T08:30:13.219Z,2.60
2018-09-14T08:32:43.827Z,4.53
2018-09-14T08:35:13.727Z,3.98
2018-09-14T08:37:43.931Z,3.75
2018-09-14T08:40:14.263Z,3.12
2018-09-14T08:42:44.247Z,3.17
2018-09-14T08:45:14.810Z,2.27
2018-09-14T08:47:44.730Z,2.70
2018-09-14T08:50:15.449Z,2.25
2018-09-14T08:52:46.301Z,3.98
2018-09-14T08:55:17.792Z,3.80
2018-09-14T08:57:48.141Z,2.75
2018-09-14T09:00:22.486Z,2.87
2018-09-14T09:02:57.469Z,2.85
2018-09-14T09:05:27.755Z,2.60
2018-09-14T09:07:57.762Z,3.50
2018-09-14T09:10:27.967Z,2.95
2018-09-14T09:12:58.345Z,3.72
2018-09-14T09:15:30.257Z,1.95
2018-09-14T09:18:00.581Z,3.33
2018-09-14T09:20:31.394Z,2.70
2018-09-14T09:23:02.359Z,1.67
2018-09-14T09:25:32.286Z,2.87
2018-09-14T09:28:02.500Z,2.42
2018-09-14T09:30:33.152Z,1.67
2018-09-14T09:33:03.469Z,2.75
2018-09-14T09:35:33.669Z,2.37
2018-09-14T09:38:04.807Z,2.65
2018-09-14T09:40:34.776Z,2.50
2018-09-14T09:43:04.999Z,3.00
2018-09-14T09:45:35.095Z,1.98
2018-09-14T09:48:09.178Z,2.22
2018-09-14T09:50:39.431Z,2.10
2018-09-14T09:53:10.245Z,2.15
2018-09-14T09:55:40.447Z,2.17
2018-09-14T09:58:11.241Z,2.33
2018-09-14T10:00:43.977Z,2.15
2018-09-14T10:03:21.022Z,2.65
2018-09-14T10:06:01.477Z,2.72
2018-09-14T10:08:31.523Z,2.27
2018-09-14T10:11:01.658Z,1.70
2018-09-14T10:13:32.107Z,3.37
2018-09-14T10:16:01.956Z,2.60
2018-09-14T10:18:32.143Z,2.05
2018-09-14T10:21:02.874Z,2.02
2018-09-14T10:23:32.883Z,1.57
2018-09-14T10:26:02.843Z,2.17
2018-09-14T10:28:32.886Z,2.22
2018-09-14T10:31:03.341Z,2.02
2018-09-14T10:33:34.512Z,2.25
2018-09-14T10:36:05.314Z,1.57
2018-09-14T10:38:35.587Z,1.80
2018-09-14T10:41:05.780Z,1.10
2018-09-14T10:43:35.879Z,1.90
2018-09-14T10:46:07.100Z,2.30
2018-09-14T10:48:39.884Z,2.60
2018-09-14T10:51:10.673Z,2.25
2018-09-14T10:53:42.076Z,1.22
2018-09-14T10:56:12.654Z,1.40
2018-09-14T10:58:45.471Z,0.90
2018-09-14T11:01:17.355Z,1.40
2018-09-14T11:03:47.966Z,1.40
2018-09-14T11:06:18.448Z,0.90
2018-09-14T11:08:48.660Z,1.55
2018-09-14T11:11:23.601Z,1.52
2018-09-14T11:13:54.551Z,1.70
2018-09-14T11:16:24.773Z,1.75
2018-09-14T11:18:54.777Z,4.75
2018-09-14T11:21:24.897Z,2.10
2018-09-14T11:23:55.109Z,1.50
2018-09-14T11:26:26.180Z,2.20
2018-09-14T11:29:00.224Z,1.12
2018-09-14T11:31:33.982Z,1.07
2018-09-14T11:34:07.454Z,1.40
2018-09-14T11:36:38.592Z,1.12
2018-09-14T11:39:12.670Z,1.67
2018-09-14T11:41:44.332Z,1.80
2018-09-14T11:44:18.567Z,1.70
2018-09-14T11:46:49.453Z,2.00
2018-09-14T11:49:20.088Z,2.10
2018-09-14T11:51:50.966Z,1.50
2018-09-14T11:54:21.264Z,2.50
2018-09-14T11:56:51.234Z,1.50
2018-09-14T11:59:21.440Z,2.10
2018-09-14T12:01:52.136Z,2.25
2018-09-14T12:04:24.634Z,1.77
2018-09-14T12:20:20.698Z,1.82
2018-09-14T12:22:51.237Z,1.80
2018-09-14T12:25:22.107Z,3.25
2018-09-14T12:27:53.255Z,1.87
2018-09-14T12:30:23.393Z,1.80
2018-09-14T12:32:54.526Z,1.22
2018-09-14T12:35:24.936Z,2.00
2018-09-14T12:37:56.414Z,4.20
2018-09-14T12:43:11.412Z,2.27
2018-09-14T12:45:42.671Z,2.17
2018-09-14T12:48:13.153Z,2.27
2018-09-14T12:50:47.454Z,2.62
2018-09-14T12:53:19.960Z,1.90
2018-09-14T12:55:51.495Z,1.47
2018-09-14T12:58:23.684Z,1.60
2018-09-14T13:00:57.090Z,1.92
2018-09-14T13:03:28.185Z,1.85
2018-09-14T13:06:00.066Z,2.25
2018-09-14T13:08:30.800Z,2.00
2018-09-14T13:11:05.098Z,2.05
2018-09-14T13:13:36.493Z,2.95
2018-09-14T13:16:10.012Z,1.90
2018-09-14T13:18:40.479Z,2.00
2018-09-14T13:21:11.100Z,1.70
2018-09-14T13:23:41.173Z,2.65
2018-09-14T13:26:11.501Z,2.65
2018-09-14T13:28:41.690Z,2.30
2018-09-14T13:31:11.889Z,2.60
2018-09-14T13:33:42.188Z,2.33
2018-09-14T13:36:14.539Z,2.70
2018-09-14T13:38:45.080Z,2.45
2018-09-14T13:41:15.040Z,1.95
2018-09-14T13:43:45.393Z,2.40
2018-09-14T13:46:15.628Z,2.40
2018-09-14T13:48:46.572Z,2.75
2018-09-14T13:51:16.557Z,1.92
2018-09-14T13:53:47.231Z,2.00
2018-09-14T13:56:17.668Z,1.57
2018-09-14T13:58:48.078Z,1.60
2018-09-14T14:01:18.311Z,2.52
2018-09-14T14:03:48.401Z,1.98
2018-09-14T14:06:18.941Z,2.70
2018-09-14T14:08:48.995Z,1.55
2018-09-14T14:11:18.916Z,2.55
2018-09-14T14:13:52.249Z,2.37
2018-09-14T14:16:22.467Z,2.50
2018-09-14T14:18:52.582Z,2.15
2018-09-14T14:21:22.734Z,1.70
2018-09-14T14:23:54.060Z,2.20
2018-09-14T14:26:24.462Z,1.00
2018-09-14T14:28:54.592Z,2.22
2018-09-14T14:31:24.853Z,3.12
2018-09-14T14:33:55.401Z,1.32
2018-09-14T14:36:25.868Z,2.70
2018-09-14T14:38:56.098Z,2.20
2018-09-14T14:41:29.823Z,2.30
2018-09-14T14:44:01.004Z,2.08
2018-09-14T14:46:31.552Z,1.95
2018-09-14T14:49:02.205Z,2.12
2018-09-14T14:51:32.179Z,2.10
2018-09-14T14:54:04.654Z,3.33
2018-09-14T14:56:36.571Z,2.83
2018-09-14T14:59:07.950Z,2.45
2018-09-14T15:01:37.864Z,2.62
2018-09-14T15:04:10.034Z,2.25
2018-09-14T15:06:42.326Z,2.60
2018-09-14T15:09:12.221Z,2.33
2018-09-14T15:11:43.160Z,2.20
2018-09-14T15:14:12.779Z,2.87
2018-09-14T15:16:42.485Z,2.12
2018-09-14T15:19:13.089Z,2.30
2018-09-14T15:21:44.419Z,2.37
2018-09-14T15:24:18.000Z,2.10
2018-09-14T15:26:47.834Z,2.40
2018-09-14T15:29:17.872Z,3.58
2018-09-14T15:31:49.406Z,2.33
2018-09-14T15:34:20.447Z,1.60
2018-09-14T15:36:51.190Z,2.83
2018-09-14T15:39:21.763Z,2.62
2018-09-14T15:41:51.549Z,2.70
2018-09-14T15:44:21.155Z,1.90
2018-09-14T15:46:51.010Z,2.58
2018-09-14T15:49:20.756Z,4.17
2018-09-14T15:51:52.902Z,3.30
2018-09-14T15:54:23.183Z,2.87
2018-09-14T15:56:55.458Z,2.30
2018-09-14T15:59:26.540Z,2.50
2018-09-14T16:01:57.634Z,2.42
2018-09-14T16:04:27.686Z,2.60
2018-09-14T16:06:58.376Z,2.65
2018-09-14T16:09:28.382Z,2.75
2018-09-14T16:12:00.864Z,2.70
2018-09-14T16:14:33.261Z,3.10
2018-09-14T16:17:04.483Z,2.87
2018-09-14T16:19:35.681Z,3.27
2018-09-14T16:22:05.536Z,3.17
2018-09-14T16:24:35.985Z,2.90
2018-09-14T16:27:06.843Z,3.00
2018-09-14T16:29:38.424Z,3.00
2018-09-14T16:32:08.509Z,2.62
2018-09-14T16:34:38.522Z,2.67
2018-09-14T16:37:14.529Z,2.20
2018-09-14T16:39:44.914Z,2.37
2018-09-14T16:42:16.839Z,2.98
2018-09-14T16:44:47.823Z,2.90
2018-09-14T16:47:22.085Z,2.90
2018-09-14T16:49:57.593Z,3.12
2018-09-14T16:52:29.323Z,2.50
2018-09-14T16:54:59.557Z,3.50
2018-09-14T16:57:29.548Z,2.95
2018-09-14T16:59:59.872Z,3.12
2018-09-14T17:02:32.456Z,3.22
2018-09-14T17:05:02.568Z,3.33
2018-09-14T17:07:32.834Z,3.42
2018-09-14T17:10:02.687Z,3.42
2018-09-14T17:12:34.253Z,2.70
2018-09-14T17:15:04.218Z,2.80
2018-09-14T17:17:35.000Z,2.80
2018-09-14T17:20:07.330Z,19.30
2018-09-14T17:22:37.423Z,3.00
2018-09-14T17:25:07.887Z,3.08
2018-09-14T17:27:37.873Z,3.40
2018-09-14T17:30:10.955Z,3.05
2018-09-14T17:32:40.885Z,3.30
2018-09-14T17:35:11.080Z,3.30
2018-09-14T17:37:40.924Z,3.67
2018-09-14T17:40:12.838Z,3.98
2018-09-14T17:42:43.214Z,2.92
2018-09-14T17:45:13.286Z,3.35
2018-09-14T17:47:44.959Z,2.87
2018-09-14T17:50:15.512Z,3.27
2018-09-14T17:52:45.532Z,2.80
2018-09-14T17:55:15.363Z,2.77
2018-09-14T17:57:46.669Z,3.58
2018-09-14T18:00:17.182Z,7.25
2018-09-14T18:02:50.446Z,2.83
2018-09-14T18:05:21.081Z,3.72
2018-09-14T18:07:51.624Z,3.10
2018-09-14T18:10:21.564Z,3.15
2018-09-14T18:12:52.135Z,24.90
2018-09-14T18:15:23.950Z,2.85
2018-09-14T18:17:55.708Z,3.00
2018-09-14T18:20:25.807Z,3.45
2018-09-14T18:22:55.807Z,3.30
2018-09-14T18:25:25.950Z,3.15
2018-09-14T18:27:58.392Z,4.10
2018-09-14T18:30:28.993Z,2.77
2018-09-14T18:32:59.830Z,3.33
2018-09-14T18:35:30.252Z,3.22
2018-09-14T18:38:00.875Z,3.62
2018-09-14T18:40:32.121Z,3.40
2018-09-14T18:43:06.174Z,2.92
2018-09-14T18:45:36.401Z,3.02
2018-09-14T18:48:08.925Z,3.37
2018-09-14T18:50:39.081Z,3.42
2018-09-14T18:53:09.143Z,4.00
2018-09-14T18:55:39.179Z,3.30
2018-09-14T18:58:09.271Z,4.55
2018-09-14T19:00:40.382Z,3.40
2018-09-14T19:03:12.800Z,9.43
2018-09-14T19:05:44.969Z,3.40
2018-09-14T19:08:15.548Z,3.08
2018-09-14T19:10:46.021Z,16.40
2018-09-14T19:13:16.260Z,2.90
2018-09-14T19:18:31.695Z,3.70
2018-09-14T19:21:01.763Z,3.80
2018-09-14T19:23:33.176Z,3.42
2018-09-14T19:26:06.194Z,3.62
2018-09-14T19:28:40.204Z,3.65
2018-09-14T19:31:10.601Z,4.67
2018-09-14T19:33:41.443Z,3.70
2018-09-14T19:36:12.191Z,3.70
2018-09-14T19:38:43.253Z,4.20
2018-09-14T19:41:13.453Z,3.70
2018-09-14T19:43:45.699Z,4.03
2018-09-14T19:46:19.241Z,4.30
2018-09-14T19:48:52.636Z,6.75
2018-09-14T19:51:22.798Z,4.22
2018-09-14T19:53:54.662Z,4.05
2018-09-14T19:56:24.720Z,4.58
2018-09-14T19:58:56.041Z,4.53
2018-09-14T20:01:25.961Z,4.05
2018-09-14T20:04:01.553Z,4.35
2018-09-14T20:06:31.805Z,4.28
2018-09-14T20:09:02.037Z,6.70
2018-09-14T20:11:32.356Z,4.15
2018-09-14T20:14:02.394Z,4.47
2018-09-14T20:16:32.501Z,3.83
2018-09-14T20:19:04.675Z,3.72
2018-09-14T20:21:34.971Z,3.45
2018-09-14T20:24:04.993Z,4.87
2018-09-14T20:26:35.101Z,4.97
2018-09-14T20:29:05.562Z,4.20
2018-09-14T20:31:35.835Z,3.72
2018-09-14T20:34:05.901Z,4.40
2018-09-14T20:36:36.450Z,8.55
2018-09-14T20:39:14.286Z,3.87
2018-09-14T20:41:44.350Z,4.55
2018-09-14T20:44:14.243Z,3.95
2018-09-14T20:46:46.756Z,3.87
2018-09-14T20:49:17.170Z,4.60
2018-09-14T20:51:47.314Z,3.65
2018-09-14T20:54:27.854Z,3.80
2018-09-14T20:56:59.752Z,3.33
2018-09-14T20:59:29.789Z,3.60
2018-09-14T21:02:05.491Z,3.80
2018-09-14T21:04:39.230Z,4.28
2018-09-14T21:07:09.877Z,3.60
2018-09-14T21:09:49.057Z,3.70
2018-09-14T21:12:21.437Z,3.90
2018-09-14T21:14:51.640Z,4.45
2018-09-14T21:17:22.295Z,3.80
2018-09-14T21:19:53.102Z,4.00
2018-09-14T21:22:23.433Z,3.62
2018-09-14T21:24:57.657Z,3.70
2018-09-14T21:27:28.250Z,3.70
2018-09-14T21:29:58.177Z,3.90
2018-09-14T21:32:28.772Z,3.60
2018-09-14T21:35:00.648Z,4.30
2018-09-14T21:37:30.681Z,4.25
2018-09-14T21:40:01.344Z,4.20
2018-09-14T21:42:32.137Z,4.62
2018-09-14T21:45:02.462Z,4.20
2018-09-14T21:47:34.408Z,3.47
2018-09-14T21:50:04.535Z,7.67
2018-09-14T21:52:37.110Z,4.37
2018-09-14T21:55:07.216Z,4.25
2018-09-14T21:57:41.338Z,5.03
2018-09-14T22:00:18.780Z,4.97
2018-09-14T22:02:49.268Z,4.80
2018-09-14T22:05:19.133Z,4.40
2018-09-14T22:07:50.618Z,5.20
2018-09-14T22:10:21.910Z,5.20
2018-09-14T22:12:52.226Z,5.40
2018-09-14T22:15:23.349Z,5.55
2018-09-14T22:17:54.375Z,5.33
2018-09-14T22:20:26.247Z,6.50
2018-09-14T22:22:56.460Z,5.87
2018-09-14T22:25:28.832Z,6.87
2018-09-14T22:28:02.045Z,7.17
2018-09-14T22:30:34.495Z,6.35
2018-09-14T22:33:05.876Z,5.90
2018-09-14T22:35:39.168Z,6.03
2018-09-14T22:38:09.755Z,6.70
2018-09-14T22:40:43.931Z,7.25
2018-09-14T22:43:14.097Z,7.37
2018-09-14T22:45:44.208Z,7.65
2018-09-14T22:49:44.495Z,7.67
2018-09-14T22:52:15.066Z,6.83
2018-09-14T22:54:48.298Z,6.47
2018-09-14T22:57:18.535Z,8.15
2018-09-14T22:59:54.659Z,8.03
2018-09-14T23:02:24.672Z,8.03
2018-09-14T23:04:54.791Z,6.17
2018-09-14T23:07:24.816Z,7.05
2018-09-14T23:09:54.754Z,4.58
2018-09-14T23:12:27.196Z,6.90
2018-09-14T23:14:57.522Z,7.33
2018-09-14T23:17:27.741Z,7.87
2018-09-14T23:19:58.709Z,8.48
2018-09-14T23:22:29.826Z,6.47
2018-09-14T23:25:00.531Z,7.28
2018-09-14T23:27:30.474Z,6.35
2018-09-14T23:30:00.581Z,4.70
2018-09-14T23:32:30.802Z,7.67
2018-09-14T23:35:03.394Z,8.85
2018-09-14T23:37:33.634Z,8.58
2018-09-14T23:40:05.466Z,7.33
2018-09-14T23:42:36.141Z,7.08
2018-09-14T23:45:06.844Z,7.67
2018-09-14T23:47:36.851Z,8.25
2018-09-14T23:50:08.323Z,8.50
2018-09-14T23:52:38.367Z,8.28
2018-09-14T23:55:10.627Z,7.58
2018-09-14T23:57:40.595Z,8.43
